Terminal Aerodrome Forecast
Issued by NWS

Home | Current Version | Previous Version | Text Only | Print | Product List | Glossary On
Versions: 1 2 3 4 5 6 7 8 9 10 11 12 13 14 15
914
FTUS42 KFFC 220532
TAFRYY
TAF
KRYY 220532Z 2206/2306 00000KT P6SM SCT250
     FM221400 26003KT P6SM FEW030 SCT250
     FM221600 25006KT P6SM SCT040
     FM221900 24008KT P6SM VCSH SCT050
     FM230100 23004KT P6SM FEW060 SCT250
      AMD NOT SKED TIL 221200=

USA.gov is the U.S. government's official web portal to all federal, state and local government web resources and services.